createdAt,value
2022-09-05T00:01:55.985Z,99.49
2022-09-05T00:05:00.804Z,99.57
2022-09-05T00:08:12.488Z,99.91
2022-09-05T00:11:42.962Z,100.00
2022-09-05T00:15:14.738Z,100.00
2022-09-05T00:22:10.845Z,100.00
2022-09-05T00:24:21.929Z,100.00
2022-09-05T00:25:28.223Z,100.00
2022-09-05T00:28:38.642Z,100.00
2022-09-05T00:31:55.647Z,100.00
2022-09-05T00:35:39.717Z,100.00
2022-09-05T00:38:36.417Z,100.00
2022-09-05T00:41:22.994Z,100.00
2022-09-05T00:44:12.761Z,100.00
2022-09-05T00:47:14.175Z,100.00
2022-09-05T00:50:03.703Z,100.00
2022-09-05T00:53:06.523Z,100.00
2022-09-05T00:56:21.162Z,100.00
2022-09-05T00:59:34.599Z,100.00
2022-09-05T01:02:32.090Z,100.00
2022-09-05T01:05:59.609Z,100.00
2022-09-05T01:09:07.717Z,100.00
2022-09-05T01:12:27.932Z,100.00
2022-09-05T01:15:24.458Z,100.00
2022-09-05T01:18:37.682Z,100.00
2022-09-05T01:21:40.669Z,100.00
2022-09-05T01:25:12.208Z,100.00
2022-09-05T01:29:14.990Z,100.00
2022-09-05T01:31:36.502Z,100.00
2022-09-05T01:34:38.122Z,100.00
2022-09-05T01:37:33.355Z,100.00
2022-09-05T01:40:35.983Z,100.00
2022-09-05T01:43:59.620Z,100.00
2022-09-05T01:47:28.458Z,100.00
2022-09-05T01:50:34.982Z,100.00
2022-09-05T01:53:51.046Z,100.00
2022-09-05T01:57:12.227Z,100.00
2022-09-05T02:00:16.430Z,100.00
2022-09-05T02:03:01.949Z,100.00
2022-09-05T02:06:35.042Z,100.00
2022-09-05T02:09:52.616Z,100.00
2022-09-05T02:12:58.513Z,100.00
2022-09-05T02:16:01.490Z,100.00
2022-09-05T02:19:05.469Z,100.00
2022-09-05T02:22:14.495Z,100.00
2022-09-05T02:26:00.491Z,100.00
2022-09-05T02:28:24.679Z,100.00
2022-09-05T02:31:24.619Z,100.00
2022-09-05T02:34:12.727Z,100.00
2022-09-05T02:37:14.534Z,100.00
2022-09-05T02:45:12.502Z,100.00
2022-09-05T02:45:14.816Z,100.00
2022-09-05T02:47:02.545Z,100.00
2022-09-05T02:54:27.800Z,100.00
2022-09-05T02:57:35.238Z,100.00
2022-09-05T02:57:37.222Z,100.00
2022-09-05T03:00:19.056Z,100.00
2022-09-05T03:03:13.792Z,100.00
2022-09-05T03:06:34.545Z,100.00
2022-09-05T03:09:48.146Z,100.00
2022-09-05T03:13:04.449Z,100.00
2022-09-05T03:16:04.675Z,100.00
2022-09-05T03:19:09.076Z,100.00
2022-09-05T03:22:31.663Z,100.00
2022-09-05T03:25:41.259Z,100.00
2022-09-05T03:28:51.894Z,100.00
2022-09-05T03:31:46.207Z,100.00
2022-09-05T03:34:46.914Z,100.00
2022-09-05T03:37:46.745Z,100.00
2022-09-05T03:40:51.238Z,100.00
2022-09-05T03:43:54.916Z,100.00
2022-09-05T03:46:40.076Z,100.00
2022-09-05T03:55:44.049Z,100.00
2022-09-05T03:57:15.051Z,100.00
2022-09-05T03:57:16.673Z,100.00
2022-09-05T04:00:09.682Z,100.00
2022-09-05T04:08:11.591Z,100.00
2022-09-05T04:08:24.099Z,100.00
2022-09-05T04:09:51.453Z,100.00
2022-09-05T04:12:58.240Z,100.00
2022-09-05T04:16:00.281Z,100.00
2022-09-05T04:19:10.766Z,100.00
2022-09-05T04:22:27.235Z,100.00
2022-09-05T04:25:17.566Z,100.00
2022-09-05T04:28:22.460Z,100.00
2022-09-05T04:31:16.695Z,100.00
2022-09-05T04:34:24.582Z,100.00
2022-09-05T04:37:11.989Z,100.00
2022-09-05T04:39:57.007Z,100.00
2022-09-05T04:42:42.538Z,100.00
2022-09-05T04:45:34.009Z,100.00
2022-09-05T04:48:42.674Z,100.00
2022-09-05T04:52:16.791Z,100.00
2022-09-05T04:55:24.043Z,100.00
2022-09-05T04:59:08.994Z,100.00
2022-09-05T05:06:08.909Z,100.00
2022-09-05T05:06:13.726Z,100.00
2022-09-05T05:08:37.869Z,94.68
2022-09-05T05:17:12.905Z,88.04
2022-09-05T05:18:13.756Z,91.55
2022-09-05T05:18:39.553Z,93.16
2022-09-05T05:21:30.664Z,92.77
2022-09-05T05:24:21.946Z,93.84
2022-09-05T05:27:10.815Z,93.97
2022-09-05T05:29:58.999Z,94.11
2022-09-05T05:32:49.241Z,93.52
2022-09-05T05:35:38.528Z,93.27
2022-09-05T05:38:53.619Z,92.75
2022-09-05T05:41:50.544Z,92.35
2022-09-05T05:44:38.379Z,91.27
2022-09-05T05:47:41.873Z,90.79
2022-09-05T05:50:45.334Z,89.96
2022-09-05T05:53:44.441Z,89.13
2022-09-05T05:56:49.771Z,87.88
2022-09-05T05:59:56.551Z,86.37
2022-09-05T06:03:25.691Z,85.55
2022-09-05T06:06:23.170Z,83.65
2022-09-05T06:14:21.943Z,82.20
2022-09-05T06:14:55.458Z,80.80
2022-09-05T06:16:19.384Z,79.61
2022-09-05T06:19:14.049Z,79.72
2022-09-05T06:22:21.438Z,78.84
2022-09-05T06:25:29.086Z,78.38
2022-09-05T06:28:27.823Z,77.69
2022-09-05T06:31:31.242Z,77.56
2022-09-05T06:34:35.736Z,76.21
2022-09-05T06:37:39.579Z,75.72
2022-09-05T06:40:35.400Z,75.62
2022-09-05T06:43:29.631Z,74.40
2022-09-05T06:46:55.160Z,74.25
2022-09-05T06:50:26.768Z,72.90
2022-09-05T06:53:32.347Z,72.38
2022-09-05T06:56:55.554Z,71.22
2022-09-05T07:00:18.169Z,70.30
2022-09-05T07:03:22.765Z,69.78
2022-09-05T07:06:20.573Z,69.36
2022-09-05T07:09:30.478Z,69.67
2022-09-05T07:12:53.739Z,69.18
2022-09-05T07:15:43.354Z,67.34
2022-09-05T07:18:40.900Z,67.39
2022-09-05T07:21:35.710Z,67.58
2022-09-05T07:24:53.324Z,67.61
2022-09-05T07:27:49.852Z,66.77
2022-09-05T07:30:56.239Z,66.70
2022-09-05T07:33:45.091Z,65.83
2022-09-05T07:36:37.659Z,65.97
2022-09-05T07:39:34.252Z,66.13
2022-09-05T07:42:27.480Z,66.75
2022-09-05T07:45:22.072Z,66.70
2022-09-05T07:48:23.025Z,66.14
2022-09-05T07:54:21.974Z,65.90
2022-09-05T07:57:08.677Z,65.66
2022-09-05T07:57:51.785Z,65.26
2022-09-05T08:00:38.947Z,65.38
2022-09-05T08:03:31.344Z,65.65
2022-09-05T08:07:25.644Z,64.78
2022-09-05T08:10:06.719Z,65.08
2022-09-05T08:13:23.724Z,64.68
2022-09-05T08:16:13.076Z,64.19
2022-09-05T08:19:41.035Z,64.13
2022-09-05T08:22:35.410Z,64.54
2022-09-05T08:26:00.915Z,64.34
2022-09-05T08:29:13.169Z,63.97
2022-09-05T08:32:13.589Z,64.20
2022-09-05T08:35:31.151Z,64.24
2022-09-05T08:38:18.893Z,64.55
2022-09-05T08:41:13.139Z,64.25
2022-09-05T08:46:37.858Z,64.48
2022-09-05T08:47:48.603Z,64.00
2022-09-05T08:50:53.145Z,64.35
2022-09-05T08:54:09.367Z,63.51
2022-09-05T08:57:09.255Z,63.02
2022-09-05T09:00:20.080Z,63.32
2022-09-05T09:03:13.714Z,62.61
2022-09-05T09:06:37.586Z,63.11
2022-09-05T09:09:54.819Z,62.18
2022-09-05T09:13:24.439Z,62.10
2022-09-05T09:16:24.615Z,61.36
2022-09-05T09:19:18.251Z,61.45
2022-09-05T09:22:48.593Z,60.33
2022-09-05T09:26:17.158Z,59.96
2022-09-05T09:29:08.939Z,60.74
2022-09-05T09:32:09.601Z,59.72
2022-09-05T09:35:17.130Z,58.67
2022-09-05T09:38:28.111Z,58.08
2022-09-05T09:41:54.810Z,57.74
2022-09-05T09:44:55.572Z,57.31
2022-09-05T09:48:18.783Z,57.23
2022-09-05T09:51:09.600Z,56.88
2022-09-05T09:54:09.903Z,56.44
2022-09-05T09:57:13.873Z,57.09
2022-09-05T10:00:07.756Z,55.39
2022-09-05T10:05:33.887Z,55.28
2022-09-05T10:10:46.048Z,54.63
2022-09-05T10:10:50.236Z,55.49
2022-09-05T10:13:35.323Z,54.07
2022-09-05T10:16:27.157Z,53.25
2022-09-05T10:22:39.406Z,53.72
2022-09-05T10:26:02.142Z,54.01
2022-09-05T10:28:50.211Z,53.68
2022-09-05T10:35:11.722Z,52.92
2022-09-05T10:35:21.246Z,52.65
2022-09-05T10:38:21.516Z,52.40
2022-09-05T10:41:21.189Z,52.37
2022-09-05T10:44:12.178Z,52.12
2022-09-05T10:47:20.179Z,52.22
2022-09-05T10:50:29.079Z,51.36
2022-09-05T10:53:43.977Z,51.77
2022-09-05T10:56:37.806Z,50.43
2022-09-05T11:02:18.762Z,49.63
2022-09-05T11:02:46.773Z,49.66
2022-09-05T11:05:38.267Z,49.79
2022-09-05T11:08:45.108Z,48.92
2022-09-05T11:11:41.482Z,49.12
2022-09-05T11:14:54.057Z,48.81
2022-09-05T11:17:40.929Z,48.62
2022-09-05T11:20:45.259Z,48.91
2022-09-05T11:23:41.325Z,48.35
2022-09-05T11:27:23.563Z,47.73
2022-09-05T11:30:30.253Z,48.17
2022-09-05T11:37:48.683Z,48.35
2022-09-05T11:39:58.554Z,47.28
2022-09-05T11:40:28.963Z,47.52
2022-09-05T11:43:59.050Z,47.02
2022-09-05T11:47:29.876Z,47.12
2022-09-05T11:50:43.572Z,47.60
2022-09-05T11:53:34.963Z,47.40
2022-09-05T11:56:45.761Z,46.96
2022-09-05T12:00:31.339Z,47.23
2022-09-05T12:04:12.963Z,47.58
2022-09-05T12:07:30.057Z,46.72
2022-09-05T12:10:39.853Z,46.25
2022-09-05T12:13:51.514Z,46.12
2022-09-05T12:16:46.422Z,45.85
2022-09-05T12:19:56.985Z,46.08
2022-09-05T12:23:07.402Z,45.57
2022-09-05T12:27:38.104Z,45.88
2022-09-05T12:29:46.943Z,45.36
2022-09-05T12:36:01.209Z,45.61
2022-09-05T12:38:56.933Z,44.89
2022-09-05T12:41:32.124Z,44.30
2022-09-05T12:44:34.721Z,44.97
2022-09-05T12:46:26.255Z,44.68
2022-09-05T12:49:23.920Z,45.25
2022-09-05T12:52:44.737Z,45.04
2022-09-05T12:55:35.364Z,44.37
2022-09-05T13:02:57.087Z,44.20
2022-09-05T13:03:06.076Z,44.43
2022-09-05T13:05:02.107Z,43.88
2022-09-05T13:07:58.351Z,44.03
2022-09-05T13:14:24.300Z,43.70
2022-09-05T13:14:59.081Z,43.24
2022-09-05T13:17:10.512Z,43.77
2022-09-05T13:19:56.083Z,43.41
2022-09-05T13:22:48.595Z,43.14
2022-09-05T13:25:37.285Z,42.89
2022-09-05T13:28:35.296Z,43.12
2022-09-05T13:38:05.951Z,43.54
2022-09-05T13:38:11.623Z,42.91
2022-09-05T13:38:37.802Z,42.41
2022-09-05T13:41:48.919Z,42.39
2022-09-05T13:44:46.425Z,41.71
2022-09-05T13:47:31.373Z,41.91
2022-09-05T13:50:34.252Z,41.72
2022-09-05T13:53:19.421Z,42.18
2022-09-05T13:56:23.989Z,41.90
2022-09-05T13:59:15.025Z,41.89
2022-09-05T14:02:27.680Z,41.92
2022-09-05T14:05:25.241Z,41.67
2022-09-05T14:08:33.692Z,42.07
2022-09-05T14:11:51.381Z,42.24
2022-09-05T14:15:11.363Z,41.97
2022-09-05T14:18:20.169Z,42.80
2022-09-05T14:21:18.279Z,42.32
2022-09-05T14:24:28.204Z,42.44
2022-09-05T14:27:23.888Z,42.22
2022-09-05T14:32:33.939Z,42.40
2022-09-05T14:37:51.083Z,42.52
2022-09-05T14:37:53.459Z,42.27
2022-09-05T14:40:30.599Z,42.59
2022-09-05T14:43:01.215Z,42.92
2022-09-05T14:45:31.521Z,42.41
2022-09-05T14:48:20.465Z,42.45
2022-09-05T14:50:49.369Z,42.03
2022-09-05T14:56:39.908Z,42.73
2022-09-05T15:02:49.443Z,42.55
2022-09-05T15:02:55.254Z,42.30
2022-09-05T15:05:13.358Z,42.11
2022-09-05T15:07:55.192Z,41.78
2022-09-05T15:12:15.380Z,42.26
2022-09-05T15:13:26.230Z,42.53
2022-09-05T15:16:07.659Z,41.38
2022-09-05T15:18:48.245Z,41.52
2022-09-05T15:21:34.099Z,41.77
2022-09-05T15:24:19.248Z,41.60
2022-09-05T15:26:54.342Z,42.15
2022-09-05T15:29:27.944Z,42.25
2022-09-05T15:32:18.066Z,42.67
2022-09-05T15:34:45.755Z,41.71
2022-09-05T15:37:48.100Z,41.69
2022-09-05T15:40:23.090Z,41.42
2022-09-05T15:42:56.781Z,41.30
2022-09-05T15:45:33.037Z,41.54
2022-09-05T15:48:15.374Z,40.98
2022-09-05T15:50:57.079Z,41.44
2022-09-05T15:53:31.612Z,41.67
2022-09-05T15:56:17.175Z,41.86
2022-09-05T15:58:55.209Z,42.35
2022-09-05T16:01:31.188Z,41.73
2022-09-05T16:10:04.135Z,41.99
2022-09-05T16:10:36.458Z,42.60
2022-09-05T16:10:50.976Z,42.80
2022-09-05T16:12:51.335Z,43.21
2022-09-05T16:19:44.639Z,43.11
2022-09-05T16:23:15.645Z,43.68
2022-09-05T16:23:31.776Z,43.55
2022-09-05T16:24:16.164Z,43.00
2022-09-05T16:26:50.515Z,43.03
2022-09-05T16:29:26.448Z,43.50
2022-09-05T16:32:05.508Z,43.79
2022-09-05T16:34:46.266Z,43.72
2022-09-05T16:37:25.819Z,43.97
2022-09-05T16:40:09.015Z,44.16
2022-09-05T16:42:54.508Z,44.23
2022-09-05T16:45:40.808Z,44.33
2022-09-05T16:48:08.770Z,44.50
2022-09-05T16:50:50.077Z,44.94
2022-09-05T16:53:32.900Z,44.90
2022-09-05T16:56:24.759Z,45.09
2022-09-05T16:58:58.899Z,45.28
2022-09-05T17:02:06.106Z,45.93
2022-09-05T17:05:05.021Z,45.78
2022-09-05T17:07:49.649Z,46.24
2022-09-05T17:10:26.102Z,46.46
2022-09-05T17:12:55.680Z,46.57
2022-09-05T17:15:29.570Z,46.71
2022-09-05T17:18:18.993Z,46.91
2022-09-05T17:20:55.840Z,47.11
2022-09-05T17:29:23.322Z,47.62
2022-09-05T17:29:30.093Z,47.67
2022-09-05T17:32:47.349Z,48.63
2022-09-05T17:35:43.925Z,48.39
2022-09-05T17:38:29.787Z,48.53
2022-09-05T17:41:07.973Z,48.78
2022-09-05T17:43:38.747Z,49.19
2022-09-05T17:46:18.822Z,49.27
2022-09-05T17:48:46.395Z,49.48
2022-09-05T17:51:27.866Z,49.75
2022-09-05T17:54:08.516Z,50.04
2022-09-05T17:56:46.507Z,50.10
2022-09-05T17:59:17.426Z,50.34
2022-09-05T18:02:03.606Z,50.71
2022-09-05T18:04:51.689Z,50.91
2022-09-05T18:07:19.649Z,51.11
2022-09-05T18:10:05.927Z,51.17
2022-09-05T18:13:12.495Z,51.66
2022-09-05T18:15:40.205Z,51.58
2022-09-05T18:18:18.434Z,51.88
2022-09-05T18:21:21.416Z,52.22
2022-09-05T18:24:12.191Z,52.52
2022-09-05T18:26:44.878Z,52.42
2022-09-05T18:29:31.093Z,52.97
2022-09-05T18:32:12.760Z,52.78
2022-09-05T18:34:43.093Z,53.12
2022-09-05T18:37:36.189Z,53.25
2022-09-05T18:40:09.504Z,53.51
2022-09-05T18:42:48.584Z,53.54
2022-09-05T18:45:28.405Z,53.74
2022-09-05T18:48:02.968Z,53.68
2022-09-05T18:50:35.357Z,53.87
2022-09-05T18:53:12.845Z,54.09
2022-09-05T18:56:12.182Z,54.29
2022-09-05T18:59:09.978Z,54.13
2022-09-05T19:01:48.846Z,54.16
2022-09-05T19:04:40.838Z,54.21
2022-09-05T19:07:19.319Z,54.49
2022-09-05T19:10:00.476Z,54.69
2022-09-05T19:12:42.876Z,54.71
2022-09-05T19:15:24.873Z,55.09
2022-09-05T19:18:26.997Z,55.33
2022-09-05T19:21:16.743Z,55.78
2022-09-05T19:23:55.698Z,56.14
2022-09-05T19:26:24.796Z,56.18
2022-09-05T19:36:48.765Z,56.91
2022-09-05T19:36:49.566Z,56.62
2022-09-05T19:37:23.917Z,57.17
2022-09-05T19:37:44.678Z,57.25
2022-09-05T19:47:24.879Z,57.18
2022-09-05T19:47:42.047Z,57.73
2022-09-05T19:47:46.864Z,57.79
2022-09-05T19:49:11.287Z,58.30
2022-09-05T19:51:43.490Z,58.52
2022-09-05T19:54:27.186Z,58.63
2022-09-05T19:57:01.189Z,58.70
2022-09-05T19:59:42.922Z,58.90
2022-09-05T20:02:19.915Z,59.09
2022-09-05T20:04:53.132Z,59.31
2022-09-05T20:07:23.993Z,59.49
2022-09-05T20:09:53.430Z,59.82
2022-09-05T20:12:30.184Z,60.17
2022-09-05T20:15:36.085Z,60.28
2022-09-05T20:18:19.619Z,60.93
2022-09-05T20:20:56.471Z,61.68
2022-09-05T20:23:28.245Z,62.32
2022-09-05T20:25:58.070Z,62.33
2022-09-05T20:28:30.880Z,62.67
2022-09-05T20:31:01.954Z,63.01
2022-09-05T20:33:37.118Z,62.87
2022-09-05T20:43:11.087Z,63.46
2022-09-05T20:43:12.031Z,63.28
2022-09-05T20:43:31.287Z,63.53
2022-09-05T20:44:51.040Z,63.91
2022-09-05T20:54:07.982Z,64.05
2022-09-05T20:54:14.519Z,64.74
2022-09-05T20:54:22.373Z,65.41
2022-09-05T20:56:19.064Z,66.06
2022-09-05T20:58:50.323Z,66.73
2022-09-05T21:01:23.090Z,67.69
2022-09-05T21:04:05.729Z,68.68
2022-09-05T21:06:35.487Z,69.31
2022-09-05T21:09:17.760Z,69.98
2022-09-05T21:11:59.913Z,70.82
2022-09-05T21:14:29.260Z,71.61
2022-09-05T21:17:15.761Z,72.40
2022-09-05T21:19:53.463Z,73.16
2022-09-05T21:22:39.402Z,73.73
2022-09-05T21:25:20.408Z,74.09
2022-09-05T21:27:56.352Z,74.52
2022-09-05T21:30:33.508Z,75.18
2022-09-05T21:33:18.485Z,75.64
2022-09-05T21:35:50.950Z,75.78
2022-09-05T21:38:32.303Z,76.30
2022-09-05T21:41:02.515Z,76.34
2022-09-05T21:47:39.903Z,76.50
2022-09-05T21:47:41.630Z,76.95
2022-09-05T21:49:09.095Z,77.23
2022-09-05T21:51:38.803Z,77.66
2022-09-05T21:59:18.703Z,77.93
2022-09-05T21:59:22.087Z,78.14
2022-09-05T21:59:56.013Z,78.52
2022-09-05T22:02:32.643Z,78.79
2022-09-05T22:05:03.294Z,79.14
2022-09-05T22:07:35.681Z,79.32
2022-09-05T22:10:05.737Z,79.86
2022-09-05T22:12:36.036Z,80.03
2022-09-05T22:15:28.191Z,80.34
2022-09-05T22:17:59.682Z,80.86
2022-09-05T22:20:46.124Z,81.20
2022-09-05T22:23:21.294Z,81.88
2022-09-05T22:25:48.954Z,81.88
2022-09-05T22:28:20.661Z,82.10
2022-09-05T22:30:56.225Z,82.64
2022-09-05T22:33:25.162Z,82.84
2022-09-05T22:35:52.823Z,83.27
2022-09-05T22:38:21.157Z,83.54
2022-09-05T22:40:49.355Z,83.80
2022-09-05T22:43:17.244Z,84.17
2022-09-05T22:45:44.988Z,84.13
2022-09-05T22:48:14.653Z,84.22
2022-09-05T22:50:43.229Z,84.56
2022-09-05T22:53:11.244Z,84.72
2022-09-05T22:55:42.936Z,84.98
2022-09-05T22:58:13.320Z,84.99
2022-09-05T23:00:41.904Z,84.97
2022-09-05T23:03:09.614Z,85.36
2022-09-05T23:05:37.427Z,85.53
2022-09-05T23:08:06.843Z,85.54
2022-09-05T23:10:36.730Z,85.58
2022-09-05T23:13:07.285Z,85.74
2022-09-05T23:15:36.060Z,85.78
2022-09-05T23:18:04.483Z,86.33
2022-09-05T23:20:33.568Z,86.52
2022-09-05T23:23:06.483Z,86.54
2022-09-05T23:25:35.670Z,86.58
2022-09-05T23:28:09.885Z,86.87
2022-09-05T23:30:39.243Z,87.04
2022-09-05T23:33:09.095Z,87.19
2022-09-05T23:35:37.646Z,87.44
2022-09-05T23:38:10.427Z,87.64
2022-09-05T23:40:39.167Z,87.64
2022-09-05T23:43:07.661Z,88.16
2022-09-05T23:45:35.930Z,88.57
2022-09-05T23:48:03.835Z,88.77
2022-09-05T23:50:31.576Z,89.04
2022-09-05T23:53:04.367Z,89.48
2022-09-05T23:55:32.844Z,89.66
2022-09-05T23:58:00.991Z,90.13
